createdAt,value
2023-04-30T00:01:58.910Z,26.00
2023-04-30T00:04:28.031Z,26.70
2023-04-30T00:06:56.574Z,26.40
2023-04-30T00:09:24.480Z,27.90
2023-04-30T00:11:52.563Z,24.00
2023-04-30T00:14:20.911Z,25.80
2023-04-30T00:16:49.090Z,24.90
2023-04-30T00:19:17.216Z,25.20
2023-04-30T00:21:45.148Z,25.80
2023-04-30T00:24:13.059Z,27.60
2023-04-30T00:26:42.774Z,25.80
2023-04-30T00:29:11.198Z,26.60
2023-04-30T00:31:39.589Z,26.30
2023-04-30T00:34:07.702Z,23.90
2023-04-30T00:39:33.637Z,24.50
2023-04-30T00:42:02.857Z,25.50
2023-04-30T00:44:30.897Z,28.10
2023-04-30T00:46:58.853Z,26.50
2023-04-30T00:49:26.960Z,27.50
2023-04-30T00:51:55.045Z,28.40
2023-04-30T00:54:24.426Z,22.50
2023-04-30T00:56:52.822Z,27.80
2023-04-30T00:59:21.293Z,28.30
2023-04-30T01:01:49.930Z,27.70
2023-04-30T01:04:18.459Z,29.50
2023-04-30T01:06:46.748Z,27.50
2023-04-30T01:09:14.971Z,27.30
2023-04-30T01:11:55.079Z,25.30
2023-04-30T01:14:50.774Z,26.20
2023-04-30T01:17:41.940Z,26.70
2023-04-30T01:20:11.451Z,25.00
2023-04-30T01:22:48.588Z,25.60
2023-04-30T01:25:38.058Z,29.10
2023-04-30T01:28:16.898Z,26.60
2023-04-30T01:30:45.727Z,25.70
2023-04-30T01:36:19.425Z,24.50
2023-04-30T01:39:10.177Z,24.20
2023-04-30T01:41:56.677Z,23.80
2023-04-30T01:44:29.793Z,23.10
2023-04-30T01:47:19.185Z,27.20
2023-04-30T01:50:11.405Z,28.30
2023-04-30T01:52:52.727Z,22.50
2023-04-30T01:55:52.641Z,21.30
2023-04-30T01:58:23.821Z,21.40
2023-04-30T02:00:52.225Z,25.70
2023-04-30T02:03:20.506Z,25.90
2023-04-30T02:05:48.896Z,22.70
2023-04-30T02:08:17.528Z,25.10
2023-04-30T02:10:45.691Z,25.80
2023-04-30T02:13:13.618Z,26.20
2023-04-30T02:15:41.680Z,27.60
2023-04-30T02:18:09.693Z,25.20
2023-04-30T02:20:38.570Z,26.80
2023-04-30T02:23:09.862Z,32.30
2023-04-30T02:25:38.706Z,34.50
2023-04-30T02:28:06.672Z,33.00
2023-04-30T02:30:34.504Z,40.70
2023-04-30T02:33:03.697Z,33.50
2023-04-30T02:35:31.732Z,31.20
2023-04-30T02:37:59.789Z,29.20
2023-04-30T02:40:28.524Z,35.20
2023-04-30T02:42:56.923Z,31.40
2023-04-30T02:45:25.053Z,29.40
2023-04-30T02:47:53.145Z,30.40
2023-04-30T02:50:21.547Z,35.30
2023-04-30T02:52:49.825Z,32.10
2023-04-30T02:55:17.819Z,29.20
2023-04-30T02:57:45.729Z,31.50
2023-04-30T03:00:14.675Z,29.80
2023-04-30T03:02:43.754Z,32.60
2023-04-30T03:05:11.863Z,31.40
2023-04-30T03:07:40.083Z,30.70
2023-04-30T03:10:09.155Z,30.80
2023-04-30T03:12:37.142Z,25.20
2023-04-30T03:15:05.752Z,30.60
2023-04-30T03:17:33.883Z,26.10
2023-04-30T03:20:01.972Z,24.20
2023-04-30T03:22:30.751Z,22.00
2023-04-30T03:24:58.713Z,25.30
2023-04-30T03:27:26.648Z,26.10
2023-04-30T03:29:54.961Z,24.90
2023-04-30T03:32:23.942Z,22.80
2023-04-30T03:34:52.110Z,24.80
2023-04-30T03:37:20.123Z,27.90
2023-04-30T03:39:48.052Z,21.80
2023-04-30T03:42:16.999Z,22.80
2023-04-30T03:44:45.024Z,22.30
2023-04-30T03:47:12.976Z,24.70
2023-04-30T03:49:41.403Z,24.40
2023-04-30T03:52:09.430Z,26.40
2023-04-30T03:54:37.728Z,25.10
2023-04-30T03:57:10.792Z,23.40
2023-04-30T03:59:38.733Z,22.70
2023-04-30T04:02:57.343Z,22.30
2023-04-30T04:05:26.560Z,23.40
2023-04-30T04:07:55.102Z,27.70
2023-04-30T04:10:23.499Z,20.80
2023-04-30T04:12:51.462Z,25.00
2023-04-30T04:15:19.580Z,29.40
2023-04-30T04:17:47.592Z,25.20
2023-04-30T04:20:16.850Z,26.80
2023-04-30T04:22:45.420Z,24.40
2023-04-30T04:25:39.423Z,30.60
2023-04-30T04:28:07.963Z,25.00
2023-04-30T04:34:38.989Z,25.70
2023-04-30T04:37:07.179Z,26.10
2023-04-30T04:39:36.719Z,20.00
2023-04-30T04:42:05.172Z,23.80
2023-04-30T04:44:33.476Z,22.40
2023-04-30T04:47:03.550Z,25.00
2023-04-30T04:49:32.162Z,21.30
2023-04-30T04:52:00.138Z,20.80
2023-04-30T04:54:28.506Z,25.40
2023-04-30T04:56:56.700Z,19.70
2023-04-30T04:59:26.927Z,28.00
2023-04-30T05:01:56.626Z,19.20
2023-04-30T05:04:24.897Z,18.70
2023-04-30T05:06:54.464Z,19.90
2023-04-30T05:09:22.648Z,20.90
2023-04-30T05:11:51.052Z,20.60
2023-04-30T05:14:18.958Z,21.80
2023-04-30T05:16:47.116Z,20.10
2023-04-30T05:19:15.192Z,22.20
2023-04-30T05:21:43.342Z,20.70
2023-04-30T05:24:17.967Z,20.30
2023-04-30T05:26:46.263Z,24.30
2023-04-30T05:29:14.320Z,22.00
2023-04-30T05:31:42.421Z,23.00
2023-04-30T05:34:10.453Z,21.90
2023-04-30T05:36:38.389Z,25.50
2023-04-30T05:39:06.428Z,24.20
2023-04-30T05:41:34.371Z,25.60
2023-04-30T05:44:02.944Z,26.00
2023-04-30T05:46:31.181Z,25.50
2023-04-30T05:48:59.112Z,25.40
2023-04-30T05:51:28.035Z,26.80
2023-04-30T05:53:57.547Z,30.90
2023-04-30T05:56:26.592Z,24.00
2023-04-30T05:58:54.563Z,25.80
2023-04-30T06:01:23.911Z,26.50
2023-04-30T06:03:52.398Z,27.40
2023-04-30T06:06:21.180Z,27.10
2023-04-30T06:08:49.171Z,27.70
2023-04-30T06:11:17.196Z,26.50
2023-04-30T06:13:47.833Z,28.00
2023-04-30T06:16:16.353Z,24.60
2023-04-30T06:18:44.724Z,26.90
2023-04-30T06:21:12.750Z,26.80
2023-04-30T06:23:40.757Z,23.90
2023-04-30T06:26:08.761Z,22.90
2023-04-30T06:28:36.691Z,21.40
2023-04-30T06:31:04.791Z,20.10
2023-04-30T06:33:32.758Z,19.40
2023-04-30T06:36:00.680Z,16.90
2023-04-30T06:38:29.174Z,16.60
2023-04-30T06:40:57.233Z,16.30
2023-04-30T06:43:25.272Z,18.40
2023-04-30T06:45:53.156Z,15.70
2023-04-30T06:48:21.069Z,18.20
2023-04-30T06:50:49.103Z,13.90
2023-04-30T06:53:17.020Z,17.00
2023-04-30T06:55:46.850Z,15.80
2023-04-30T06:58:15.798Z,14.40
2023-04-30T07:00:43.830Z,9.40
2023-04-30T07:03:11.907Z,12.00
2023-04-30T07:05:40.080Z,8.70
2023-04-30T07:08:08.010Z,10.30
2023-04-30T07:10:36.262Z,9.70
2023-04-30T07:13:04.293Z,8.40
2023-04-30T07:15:32.356Z,7.80
2023-04-30T07:18:00.476Z,7.00
2023-04-30T07:20:28.549Z,7.20
2023-04-30T07:22:56.981Z,10.40
2023-04-30T07:25:24.923Z,8.20
2023-04-30T07:27:56.476Z,10.90
2023-04-30T07:30:25.480Z,8.80
2023-04-30T07:32:53.451Z,8.30
2023-04-30T07:35:21.442Z,9.00
2023-04-30T07:37:49.482Z,7.10
2023-04-30T07:40:25.401Z,6.30
2023-04-30T07:43:03.364Z,8.20
2023-04-30T07:45:31.987Z,9.80
2023-04-30T07:48:00.028Z,10.30
2023-04-30T07:50:29.904Z,9.10
2023-04-30T07:52:58.025Z,7.20
2023-04-30T07:55:26.155Z,8.50
2023-04-30T07:57:54.135Z,12.80
2023-04-30T08:00:22.239Z,10.70
2023-04-30T08:05:19.191Z,7.50
2023-04-30T08:07:47.238Z,7.60
2023-04-30T08:10:15.795Z,7.90
2023-04-30T08:12:44.944Z,7.70
2023-04-30T08:15:12.844Z,4.90
2023-04-30T08:17:40.994Z,8.50
2023-04-30T08:20:09.590Z,8.50
2023-04-30T08:22:37.672Z,5.70
2023-04-30T08:25:07.006Z,6.80
2023-04-30T08:27:34.937Z,8.20
2023-04-30T08:30:09.914Z,8.30
2023-04-30T08:32:46.946Z,6.60
2023-04-30T08:35:21.435Z,9.00
2023-04-30T08:37:50.300Z,7.40
2023-04-30T08:40:19.279Z,8.00
2023-04-30T08:43:00.391Z,8.70
2023-04-30T08:45:28.578Z,8.60
2023-04-30T08:47:59.840Z,8.40
2023-04-30T08:50:29.410Z,3.90
2023-04-30T08:53:01.823Z,8.70
2023-04-30T08:55:30.169Z,7.20
2023-04-30T08:57:58.225Z,5.10
2023-04-30T09:00:28.659Z,5.00
2023-04-30T09:02:56.811Z,5.50
2023-04-30T09:05:24.933Z,4.70
2023-04-30T09:08:02.995Z,4.60
2023-04-30T09:10:36.268Z,5.90
2023-04-30T09:13:09.382Z,7.60
2023-04-30T09:15:41.616Z,5.00
2023-04-30T09:18:14.685Z,3.80
2023-04-30T09:21:01.924Z,3.30
2023-04-30T09:23:30.903Z,3.90
2023-04-30T09:25:58.754Z,4.10
2023-04-30T09:28:29.152Z,6.40
2023-04-30T09:30:58.178Z,5.30
2023-04-30T09:33:26.175Z,3.10
2023-04-30T09:35:54.224Z,5.10
2023-04-30T09:38:33.211Z,3.10
2023-04-30T09:41:02.148Z,5.70
2023-04-30T09:43:31.006Z,5.20
2023-04-30T09:46:00.725Z,4.40
2023-04-30T09:48:29.171Z,2.90
2023-04-30T09:50:57.738Z,3.30
2023-04-30T09:53:26.789Z,6.00
2023-04-30T09:55:59.205Z,4.00
2023-04-30T09:58:29.637Z,3.00
2023-04-30T10:01:01.134Z,5.30
2023-04-30T10:03:31.619Z,3.70
2023-04-30T10:06:01.086Z,6.50
2023-04-30T10:08:47.744Z,6.40
2023-04-30T10:11:23.698Z,5.00
2023-04-30T10:13:53.663Z,7.60
2023-04-30T10:16:28.674Z,3.10
2023-04-30T10:19:00.953Z,3.20
2023-04-30T10:21:30.002Z,6.90
2023-04-30T10:23:59.282Z,3.60
2023-04-30T10:26:29.710Z,5.90
2023-04-30T10:29:01.462Z,2.90
2023-04-30T10:31:30.825Z,2.90
2023-04-30T10:34:05.015Z,6.90
2023-04-30T10:36:38.915Z,2.30
2023-04-30T10:39:07.500Z,3.90
2023-04-30T10:41:35.709Z,2.10
2023-04-30T10:44:05.591Z,2.20
2023-04-30T10:46:37.011Z,2.90
2023-04-30T10:49:05.500Z,5.10
2023-04-30T10:51:58.666Z,3.10
2023-04-30T10:54:36.967Z,4.60
2023-04-30T10:57:17.920Z,2.90
